Time;durP1;ratioP1;P1;durP2;ratioP2;P2;SDS_P1;SDS_P2;PMS_P1;PMS_P2;Temp;Humidity;BMP_temperature;BMP_pressure;BME280_temperature;BME280_humidity;BME280_pressure;Samples;Min_cycle;Max_cycle;Signal;HPM_P1;HPM_P2
2022/06/03 00:00:21;;;;;;;3.07;2.27;;;;;;;11.71;69.96;101420.03;4995294;28;20200;-80
2022/06/03 00:03:17;;;;;;;3.33;2.90;;;;;;;11.66;69.91;101413.22;4989304;28;20208;-81
2022/06/03 00:06:05;;;;;;;3.33;2.30;;;;;;;11.60;69.96;101413.56;4989631;28;20233;-80
2022/06/03 00:08:58;;;;;;;6.50;2.40;;;;;;;11.54;70.26;101414.75;4979611;28;20260;-81
2022/06/03 00:11:53;;;;;;;2.30;2.10;;;;;;;11.51;70.37;101414.06;4991342;28;20223;-80
2022/06/03 00:14:40;;;;;;;1.97;1.87;;;;;;;11.47;70.17;101418.69;4953212;28;20227;-80
2022/06/03 00:17:23;;;;;;;1.93;1.83;;;;;;;11.36;69.78;101413.97;4984501;28;20243;-80
2022/06/03 00:20:03;;;;;;;2.73;2.37;;;;;;;11.27;70.28;101418.94;4991421;28;20210;-80
2022/06/03 00:22:56;;;;;;;2.47;1.97;;;;;;;11.22;70.52;101418.31;4989125;28;20201;-81
2022/06/03 00:25:53;;;;;;;2.07;1.97;;;;;;;11.18;70.87;101430.09;4994063;28;20594;-81
2022/06/03 00:28:33;;;;;;;2.37;2.00;;;;;;;11.14;71.15;101432.06;4984142;28;20200;-81
2022/06/03 00:31:13;;;;;;;2.13;1.90;;;;;;;11.11;71.14;101424.22;4987379;28;20208;-80
2022/06/03 00:34:07;;;;;;;2.67;2.20;;;;;;;11.09;71.41;101423.47;4986381;28;20669;-81
2022/06/03 00:36:54;;;;;;;2.30;2.00;;;;;;;11.02;71.04;101425.56;4991403;28;20196;-80
2022/06/03 00:39:46;;;;;;;3.67;1.90;;;;;;;10.96;71.24;101417.03;4990868;28;20226;-81
2022/06/03 00:42:30;;;;;;;2.23;2.10;;;;;;;10.91;71.60;101416.44;4977698;28;20207;-80
2022/06/03 00:45:21;;;;;;;2.70;2.50;;;;;;;10.88;71.92;101412.13;4991366;28;20712;-80
2022/06/03 00:48:05;;;;;;;2.60;2.40;;;;;;;10.87;71.82;101407.72;4987109;28;20202;-80
2022/06/03 00:50:55;;;;;;;2.13;1.93;;;;;;;10.84;72.13;101402.56;4991460;28;20202;-80
2022/06/03 00:53:38;;;;;;;2.00;1.80;;;;;;;10.82;72.32;101409.78;4979404;28;20219;-80
2022/06/03 00:56:43;;;;;;;2.97;2.00;;;;;;;10.78;72.23;101409.06;4987790;28;20199;-80
2022/06/03 00:59:30;;;;;;;2.33;2.13;;;;;;;10.75;72.52;101395.03;4972678;28;20211;-80
2022/06/03 01:02:16;;;;;;;3.80;2.27;;;;;;;10.73;72.31;101399.59;4992455;28;20203;-80
2022/06/03 01:05:00;;;;;;;2.50;2.23;;;;;;;10.71;72.30;101398.81;4987169;28;20702;-80
2022/06/03 01:07:40;;;;;;;3.17;2.00;;;;;;;10.69;72.66;101396.22;4986117;28;20195;-80
2022/06/03 01:10:25;;;;;;;3.23;2.40;;;;;;;10.68;72.92;101393.66;4992767;28;20227;-80
2022/06/03 01:13:15;;;;;;;1.90;1.80;;;;;;;10.64;72.57;101390.28;4988492;28;20567;-79
2022/06/03 01:15:49;;;;;;;2.13;1.73;;;;;;;10.58;72.16;101392.38;4990211;28;20306;-80
2022/06/03 01:18:31;;;;;;;1.97;1.80;;;;;;;10.51;72.21;101388.31;4990208;28;20294;-80
2022/06/03 01:21:07;;;;;;;2.47;2.27;;;;;;;10.41;72.04;101388.78;4990989;28;20210;-81
2022/06/03 01:24:13;;;;;;;2.00;1.90;;;;;;;10.34;72.39;101387.38;4988714;28;20203;-81
2022/06/03 01:27:21;;;;;;;2.77;2.20;;;;;;;10.25;72.37;101394.97;4979045;28;20222;-80
2022/06/03 01:30:14;;;;;;;2.97;2.47;;;;;;;10.13;72.54;101388.44;4982101;28;20206;-80
2022/06/03 01:33:15;;;;;;;2.83;2.57;;;;;;;10.01;73.37;101386.38;4989091;28;20647;-80
2022/06/03 01:36:09;;;;;;;2.57;2.37;;;;;;;9.97;73.84;101387.47;4987515;28;20251;-79
2022/06/03 01:38:56;;;;;;;2.93;2.73;;;;;;;9.96;74.37;101386.59;4988858;28;20199;-80
2022/06/03 01:41:38;;;;;;;3.83;2.57;;;;;;;9.96;74.34;101391.91;4998558;28;20581;-80
2022/06/03 01:44:26;;;;;;;3.40;3.10;;;;;;;9.96;74.77;101385.75;4987549;28;20717;-80
2022/06/03 01:47:16;;;;;;;3.13;2.83;;;;;;;9.95;74.52;101384.00;4986875;28;20575;-80
2022/06/03 01:50:06;;;;;;;2.93;2.73;;;;;;;9.93;74.67;101386.75;4984468;28;20543;-80
2022/06/03 01:53:14;;;;;;;3.30;2.80;;;;;;;9.89;74.92;101385.16;4984793;28;20230;-81
2022/06/03 01:56:25;;;;;;;2.50;2.30;;;;;;;9.81;75.11;101373.19;4986196;28;20223;-81
2022/06/03 01:59:21;;;;;;;3.07;2.80;;;;;;;9.74;75.17;101373.47;4921453;29;20214;-80
2022/06/03 02:02:26;;;;;;;2.47;2.27;;;;;;;9.73;75.52;101370.88;4981916;28;20211;-80
2022/06/03 02:05:27;;;;;;;2.73;2.50;;;;;;;9.70;75.29;101374.56;4983797;28;20231;-80
2022/06/03 02:08:24;;;;;;;2.70;2.50;;;;;;;9.68;75.78;101376.41;4993949;28;20214;-80
2022/06/03 02:11:19;;;;;;;2.83;2.50;;;;;;;9.66;75.69;101372.13;4993507;28;20203;-80
2022/06/03 02:14:17;;;;;;;3.20;2.20;;;;;;;9.64;75.30;101381.97;4991998;28;20204;-79
2022/06/03 02:17:18;;;;;;;2.80;2.60;;;;;;;9.62;75.72;101382.06;4993168;28;20199;-79
2022/06/03 02:20:20;;;;;;;3.10;2.43;;;;;;;9.61;75.83;101383.00;4989798;28;20211;-80
2022/06/03 02:23:12;;;;;;;2.43;2.23;;;;;;;9.59;76.22;101376.00;4988920;28;20203;-81
2022/06/03 02:25:55;;;;;;;2.60;2.40;;;;;;;9.57;75.83;101377.88;4985232;28;20597;-80
2022/06/03 02:28:34;;;;;;;2.80;2.60;;;;;;;9.55;76.23;101377.94;4990850;28;20204;-80
2022/06/03 02:31:26;;;;;;;2.50;2.30;;;;;;;9.55;75.55;101387.72;4987089;28;20195;-80
2022/06/03 02:34:22;;;;;;;2.70;2.43;;;;;;;9.52;75.50;101380.75;4990121;28;20239;-80
2022/06/03 02:37:18;;;;;;;2.53;2.33;;;;;;;9.51;76.03;101378.16;4983737;28;20191;-80
2022/06/03 02:40:10;;;;;;;3.67;2.97;;;;;;;9.49;76.18;101382.72;4993075;28;20210;-81
2022/06/03 02:43:07;;;;;;;2.70;2.47;;;;;;;9.46;75.64;101388.16;4981320;28;20667;-80
2022/06/03 02:46:17;;;;;;;2.70;2.37;;;;;;;9.44;76.00;101382.91;4982266;28;20243;-80
2022/06/03 02:49:18;;;;;;;3.70;2.23;;;;;;;9.38;76.07;101373.44;4989088;28;20211;-81
2022/06/03 02:52:06;;;;;;;4.40;2.17;;;;;;;9.32;75.82;101378.16;4984972;28;20883;-81
2022/06/03 02:55:20;;;;;;;2.40;2.20;;;;;;;9.26;75.81;101373.16;4984884;28;20591;-80
2022/06/03 02:58:21;;;;;;;3.60;2.60;;;;;;;9.18;74.97;101370.81;4928295;29;21011;-80
2022/06/03 03:01:08;;;;;;;2.63;2.43;;;;;;;9.10;75.29;101373.00;4994360;28;20682;-80
2022/06/03 03:04:09;;;;;;;2.27;2.07;;;;;;;9.04;75.09;101383.88;4987611;28;20627;-80
2022/06/03 03:07:17;;;;;;;2.30;2.10;;;;;;;8.99;76.14;101384.09;4993211;28;20216;-79
2022/06/03 03:10:03;;;;;;;2.80;2.60;;;;;;;8.96;75.70;101386.00;4953080;28;20256;-80
2022/06/03 03:13:04;;;;;;;3.73;3.43;;;;;;;8.92;76.48;101389.75;4989698;28;20782;-80
2022/06/03 03:15:59;;;;;;;3.63;2.40;;;;;;;8.85;75.64;101386.50;4990860;28;20306;-80
2022/06/03 03:19:01;;;;;;;3.00;2.80;;;;;;;8.82;76.09;101380.47;4995499;28;20200;-80
2022/06/03 03:21:43;;;;;;;2.90;2.63;;;;;;;8.80;76.50;101375.22;4978345;28;20199;-80
2022/06/03 03:24:50;;;;;;;3.07;2.70;;;;;;;8.76;76.31;101373.66;4985207;28;20244;-81
2022/06/03 03:27:41;;;;;;;2.70;2.50;;;;;;;8.70;76.69;101381.88;4991014;28;20214;-80
2022/06/03 03:30:25;;;;;;;2.80;2.60;;;;;;;8.68;77.23;101376.63;4986190;28;20212;-79
2022/06/03 03:33:06;;;;;;;2.67;2.47;;;;;;;8.68;77.07;101381.09;4988477;28;20666;-79
2022/06/03 03:36:17;;;;;;;2.30;2.20;;;;;;;8.67;77.10;101382.88;4987679;28;20223;-80
2022/06/03 03:39:26;;;;;;;2.80;2.60;;;;;;;8.66;77.72;101382.94;4948582;28;20595;-80
2022/06/03 03:42:34;;;;;;;2.50;2.30;;;;;;;8.63;77.48;101391.03;4987153;28;20197;-81
2022/06/03 03:45:34;;;;;;;2.00;1.90;;;;;;;8.60;77.41;101391.16;4944162;28;20228;-80
2022/06/03 03:48:43;;;;;;;3.33;2.63;;;;;;;8.60;77.97;101393.81;4988389;28;20200;-80
2022/06/03 03:51:32;;;;;;;3.37;2.30;;;;;;;8.59;77.48;101394.78;4984759;28;20697;-81
2022/06/03 03:54:42;;;;;;;2.83;2.63;;;;;;;8.54;78.30;101394.09;4991195;28;20219;-80
2022/06/03 03:57:41;;;;;;;3.27;2.87;;;;;;;8.50;78.86;101392.50;4985028;28;20211;-80
2022/06/03 04:00:48;;;;;;;2.97;2.63;;;;;;;8.48;79.02;101389.03;4984396;28;20211;-80
2022/06/03 04:03:45;;;;;;;3.20;2.90;;;;;;;8.48;78.73;101381.06;4984052;28;20211;-80
2022/06/03 04:06:55;;;;;;;3.13;2.70;;;;;;;8.46;78.86;101380.28;4982146;28;20235;-80
2022/06/03 04:10:07;;;;;;;2.83;2.63;;;;;;;8.42;78.58;101384.00;4981261;28;20203;-81
2022/06/03 04:12:53;;;;;;;3.63;2.93;;;;;;;8.41;79.17;101379.63;4966449;28;20215;-80
2022/06/03 04:15:50;;;;;;;5.27;3.93;;;;;;;8.39;80.24;101370.88;4986626;28;20227;-80
2022/06/03 04:18:59;;;;;;;4.07;3.37;;;;;;;8.39;80.60;101373.53;4982255;28;20207;-79
2022/06/03 04:22:02;;;;;;;4.13;3.60;;;;;;;8.42;80.45;101378.72;4978460;28;20204;-79
2022/06/03 04:24:56;;;;;;;4.33;4.03;;;;;;;8.43;81.04;101378.59;4978531;28;20251;-80
2022/06/03 04:27:55;;;;;;;4.77;4.23;;;;;;;8.48;81.45;101389.03;4958810;28;20234;-81
2022/06/03 04:30:58;;;;;;;4.67;4.27;;;;;;;8.50;81.65;101389.84;4985714;28;20199;-80
2022/06/03 04:34:09;;;;;;;5.50;4.23;;;;;;;8.53;81.59;101387.06;4985642;28;20208;-81
2022/06/03 04:37:30;;;;;;;4.83;4.43;;;;;;;8.57;82.30;101384.22;4964081;28;20247;-80
2022/06/03 04:40:39;;;;;;;5.60;4.50;;;;;;;8.62;82.71;101376.03;4968998;28;20894;-80
2022/06/03 04:43:42;;;;;;;5.23;4.73;;;;;;;8.66;83.39;101370.53;4981265;28;20210;-80
2022/06/03 04:46:47;;;;;;;7.20;6.40;;;;;;;8.71;83.51;101375.63;4984478;28;20238;-81
2022/06/03 04:49:57;;;;;;;7.67;6.77;;;;;;;8.76;83.76;101376.31;4966221;28;20211;-81
2022/06/03 04:52:54;;;;;;;7.30;6.60;;;;;;;8.81;84.21;101376.94;4971293;28;20200;-81
2022/06/03 04:56:02;;;;;;;7.37;6.63;;;;;;;8.88;83.99;101372.22;4985220;28;20216;-79
2022/06/03 04:59:21;;;;;;;7.37;6.67;;;;;;;8.93;84.80;101373.75;4980523;28;20245;-80
2022/06/03 05:02:23;;;;;;;6.90;5.87;;;;;;;9.00;84.46;101369.88;4982049;28;20211;-80
2022/06/03 05:05:49;;;;;;;6.30;5.80;;;;;;;9.09;85.67;101370.41;4986870;28;20228;-82
2022/06/03 05:08:58;;;;;;;7.57;6.10;;;;;;;9.16;85.88;101374.47;4985017;28;20581;-80
2022/06/03 05:11:58;;;;;;;11.67;6.33;;;;;;;9.22;85.89;101375.06;4984348;28;20207;-81
2022/06/03 05:15:11;;;;;;;8.97;7.33;;;;;;;9.30;85.58;101372.06;4992819;28;20221;-80
2022/06/03 05:18:07;;;;;;;10.23;7.33;;;;;;;9.39;85.88;101361.00;4957441;28;20211;-81
2022/06/03 05:21:24;;;;;;;9.03;8.17;;;;;;;9.49;86.44;101359.66;4988581;28;20204;-81
2022/06/03 05:24:17;;;;;;;9.43;8.63;;;;;;;9.60;86.42;101351.16;4927293;28;20755;-81
2022/06/03 05:27:17;;;;;;;11.97;9.80;;;;;;;9.73;86.58;101357.59;4941522;29;20588;-81
2022/06/03 05:30:03;;;;;;;11.60;10.00;;;;;;;9.86;86.62;101349.84;4981751;28;20203;-82
2022/06/03 05:32:57;;;;;;;14.10;10.50;;;;;;;10.00;86.43;101360.72;4984496;28;20230;-80
2022/06/03 05:35:41;;;;;;;11.33;10.23;;;;;;;10.15;86.96;101354.63;4989438;28;20234;-84
2022/06/03 05:38:43;;;;;;;10.97;9.20;;;;;;;10.33;87.09;101352.84;4947645;28;20216;-82
2022/06/03 05:44:27;;;;;;;10.53;9.63;;;;;;;10.68;86.91;101359.00;4992615;28;20274;-83
2022/06/03 05:47:02;;;;;;;12.07;9.63;;;;;;;10.85;87.07;101361.66;4995063;28;20230;-83
2022/06/03 05:49:39;;;;;;;11.93;10.80;;;;;;;11.03;86.86;101365.13;4995418;28;20622;-83
2022/06/03 05:52:24;;;;;;;12.20;11.10;;;;;;;11.23;86.75;101353.38;4984380;28;20827;-84
2022/06/03 05:55:05;;;;;;;11.93;10.80;;;;;;;11.42;86.36;101362.09;4991805;28;20743;-84
2022/06/03 05:57:39;;;;;;;10.63;9.57;;;;;;;11.61;85.84;101356.59;4989397;28;20221;-83
2022/06/03 06:00:44;;;;;;;10.27;9.37;;;;;;;11.79;84.85;101360.91;4996245;28;20210;-82
2022/06/03 06:03:35;;;;;;;13.03;10.07;;;;;;;12.00;84.12;101357.00;4987764;28;20221;-82
2022/06/03 06:06:15;;;;;;;11.03;10.13;;;;;;;12.20;83.67;101352.31;4988779;28;20671;-83
2022/06/03 06:08:53;;;;;;;9.23;8.33;;;;;;;12.38;82.53;101360.09;4992778;28;20642;-82
2022/06/03 06:11:31;;;;;;;8.43;7.60;;;;;;;12.56;81.76;101349.25;4981845;28;20748;-83
2022/06/03 06:14:19;;;;;;;7.63;7.00;;;;;;;12.74;80.72;101351.66;4994301;28;20246;-82
2022/06/03 06:16:47;;;;;;;6.67;6.07;;;;;;;12.89;79.42;101357.91;4994782;28;20204;-82
2022/06/03 06:19:23;;;;;;;7.77;6.97;;;;;;;13.04;78.65;101353.41;4994062;28;20220;-82
2022/06/03 06:22:02;;;;;;;6.93;6.33;;;;;;;13.22;77.89;101351.44;4991881;28;20195;-83
2022/06/03 06:24:52;;;;;;;7.93;7.23;;;;;;;13.44;77.60;101352.63;4988475;28;20278;-82
2022/06/03 06:27:57;;;;;;;7.37;6.30;;;;;;;13.69;77.06;101348.38;4992610;28;20693;-83
2022/06/03 06:30:50;;;;;;;4.90;4.50;;;;;;;13.87;75.29;101344.50;4986232;28;20651;-84
2022/06/03 06:33:33;;;;;;;6.40;5.13;;;;;;;14.05;74.17;101350.44;4994941;28;20203;-82
2022/06/03 06:36:37;;;;;;;6.30;5.70;;;;;;;14.26;73.16;101351.69;4995444;28;20310;-82
2022/06/03 06:39:12;;;;;;;6.27;5.67;;;;;;;14.46;72.24;101348.53;4990979;28;20204;-81
2022/06/03 06:41:51;;;;;;;7.67;5.67;;;;;;;14.63;70.81;101339.34;4989897;28;20199;-83
2022/06/03 06:44:33;;;;;;;5.90;5.33;;;;;;;14.78;69.88;101334.72;4992508;28;20235;-85
2022/06/03 06:47:11;;;;;;;6.87;6.27;;;;;;;14.93;69.22;101326.47;4995482;28;20212;-84
2022/06/03 06:49:41;;;;;;;6.67;6.07;;;;;;;15.11;69.00;101324.28;4994720;28;20226;-83
2022/06/03 06:52:40;;;;;;;7.17;6.30;;;;;;;15.26;68.17;101316.97;4995582;28;20235;-85
2022/06/03 06:55:15;;;;;;;6.83;6.20;;;;;;;15.38;67.38;101316.09;4995622;28;20231;-82
2022/06/03 06:57:46;;;;;;;6.00;5.50;;;;;;;15.50;67.13;101315.19;4990610;28;20215;-82
2022/06/03 07:00:21;;;;;;;5.53;5.03;;;;;;;15.65;66.76;101315.06;4994427;28;20211;-82
2022/06/03 07:02:53;;;;;;;7.03;5.33;;;;;;;15.82;66.44;101322.72;4995445;28;20226;-83
2022/06/03 07:05:26;;;;;;;6.33;5.17;;;;;;;16.00;65.88;101323.16;4990466;28;20224;-83
2022/06/03 07:07:58;;;;;;;6.07;5.33;;;;;;;16.14;64.60;101322.97;4987199;28;20225;-83
2022/06/03 07:10:27;;;;;;;10.37;7.23;;;;;;;16.24;63.84;101324.84;4990944;28;20591;-83
2022/06/03 07:13:01;;;;;;;9.87;7.87;;;;;;;16.39;64.36;101330.88;4994356;28;20230;-83
2022/06/03 07:15:34;;;;;;;9.30;6.97;;;;;;;16.57;63.47;101328.59;4994918;28;20224;-83
2022/06/03 07:21:08;;;;;;;9.70;6.20;;;;;;;16.81;61.77;101310.59;4992328;28;20953;-83
2022/06/03 07:23:44;;;;;;;8.47;5.77;;;;;;;16.93;61.56;101309.59;4993980;28;20206;-83
2022/06/03 07:26:18;;;;;;;10.07;6.50;;;;;;;17.06;60.44;101308.63;4994275;28;20243;-81
2022/06/03 07:28:54;;;;;;;7.83;5.80;;;;;;;17.20;60.43;101303.84;4994683;28;20210;-83
2022/06/03 07:31:26;;;;;;;8.77;5.50;;;;;;;17.37;60.18;101312.41;4994608;28;20226;-82
2022/06/03 07:34:04;;;;;;;8.00;5.20;;;;;;;17.53;59.45;101304.78;4994868;28;20214;-82
2022/06/03 07:36:39;;;;;;;6.07;5.30;;;;;;;17.69;58.67;101294.50;4992139;28;20214;-83
2022/06/03 07:39:25;;;;;;;5.73;5.03;;;;;;;17.84;57.94;101295.91;4993958;28;20689;-82
2022/06/03 07:42:01;;;;;;;6.20;5.67;;;;;;;18.01;57.31;101295.34;4994815;28;20208;-83
2022/06/03 07:44:37;;;;;;;7.50;5.33;;;;;;;18.18;57.62;101299.31;4989171;28;20589;-82
2022/06/03 07:47:08;;;;;;;7.37;6.10;;;;;;;18.34;57.28;101286.22;4993788;28;20216;-83
2022/06/03 07:49:39;;;;;;;6.20;5.60;;;;;;;18.49;56.83;101291.28;4987824;28;20204;-83
2022/06/03 07:52:13;;;;;;;6.70;5.20;;;;;;;18.63;56.51;101278.31;4993407;28;20211;-82
2022/06/03 07:54:51;;;;;;;5.30;4.70;;;;;;;18.82;56.42;101268.63;4990438;28;20238;-83
2022/06/03 07:57:21;;;;;;;5.00;4.33;;;;;;;19.01;56.33;101268.69;4993514;28;20592;-83
2022/06/03 07:59:48;;;;;;;5.37;4.20;;;;;;;19.19;56.33;101260.81;4993705;28;20195;-83
2022/06/03 08:02:17;;;;;;;4.50;4.10;;;;;;;19.33;55.26;101265.84;4993436;28;20206;-83
2022/06/03 08:04:47;;;;;;;4.87;3.67;;;;;;;19.43;52.62;101258.59;4993140;28;20726;-84
2022/06/03 08:12:57;;;;;;;5.53;3.97;;;;;;;19.63;51.49;101252.25;4989654;28;20214;-84
2022/06/03 08:15:33;;;;;;;6.57;4.23;;;;;;;19.75;50.66;101255.66;4993305;28;20254;-83
2022/06/03 08:18:02;;;;;;;4.93;4.07;;;;;;;19.88;50.13;101256.25;4991016;28;20296;-83
2022/06/03 08:20:30;;;;;;;4.67;4.20;;;;;;;19.96;50.40;101264.50;4992573;28;20210;-84
2022/06/03 08:22:57;;;;;;;6.87;4.10;;;;;;;20.07;50.95;101261.63;4992500;28;20667;-84
2022/06/03 08:25:28;;;;;;;5.20;3.93;;;;;;;20.19;49.69;101246.13;4988743;28;20226;-84
2022/06/03 08:27:57;;;;;;;6.83;4.77;;;;;;;20.35;49.62;101254.50;4991906;28;20225;-84
2022/06/03 08:30:27;;;;;;;4.60;4.17;;;;;;;20.48;48.65;101256.91;4992554;28;20656;-83
2022/06/03 08:32:58;;;;;;;4.37;3.97;;;;;;;20.59;48.24;101251.34;4990718;28;20205;-84
2022/06/03 08:35:28;;;;;;;3.30;2.80;;;;;;;20.73;47.55;101253.56;4989963;28;20222;-83
2022/06/03 08:37:59;;;;;;;3.10;2.80;;;;;;;20.80;46.26;101256.50;4993358;28;20197;-84
2022/06/03 08:40:31;;;;;;;2.50;2.20;;;;;;;20.88;45.38;101256.63;4993895;28;20206;-84
2022/06/03 08:43:07;;;;;;;2.78;2.47;;;;;;;20.96;44.25;101250.50;4993165;28;20221;-84
2022/06/03 08:45:46;;;;;;;4.60;2.60;;;;;;;20.92;43.21;101244.50;4992954;28;20226;-85
2022/06/03 08:48:15;;;;;;;2.35;2.10;;;;;;;20.89;42.98;101252.06;4986202;28;20606;-84
2022/06/03 08:50:51;;;;;;;2.30;2.10;;;;;;;20.95;43.67;101252.34;4992254;28;20214;-84
2022/06/03 08:53:27;;;;;;;2.20;2.10;;;;;;;21.04;43.17;101242.44;4992696;28;20205;-84
2022/06/03 08:55:59;;;;;;;2.42;2.22;;;;;;;21.10;43.24;101241.84;4991427;28;20687;-84
2022/06/03 08:58:34;;;;;;;3.63;2.25;;;;;;;21.21;43.44;101236.25;4981926;28;20238;-84
2022/06/03 09:01:14;;;;;;;3.22;2.75;;;;;;;21.33;43.50;101239.59;4993271;28;20203;-84
2022/06/03 09:03:48;;;;;;;2.85;2.10;;;;;;;21.43;43.02;101235.84;4991158;28;20207;-84
2022/06/03 09:06:31;;;;;;;2.35;2.15;;;;;;;21.57;42.80;101228.19;4993041;28;20281;-84
2022/06/03 09:09:05;;;;;;;3.78;2.40;;;;;;;21.71;41.95;101233.91;4992768;28;20231;-84
2022/06/03 09:11:36;;;;;;;2.03;1.92;;;;;;;21.83;41.13;101234.53;4992756;28;20193;-84
2022/06/03 09:14:06;;;;;;;3.03;1.90;;;;;;;21.88;40.23;101225.91;4992987;28;20219;-85
2022/06/03 09:16:35;;;;;;;1.98;1.65;;;;;;;21.96;40.72;101232.28;4991406;28;20203;-83
2022/06/03 09:19:06;;;;;;;3.75;2.08;;;;;;;22.04;40.27;101229.66;4991914;28;20807;-84
2022/06/03 09:21:41;;;;;;;2.60;1.90;;;;;;;22.14;40.25;101224.13;4992099;28;20210;-84
2022/06/03 09:24:14;;;;;;;2.22;1.98;;;;;;;22.22;39.91;101220.63;4992217;28;20735;-84
2022/06/03 09:26:44;;;;;;;1.90;1.70;;;;;;;22.27;40.40;101224.56;4991902;28;20887;-85
2022/06/03 09:29:13;;;;;;;2.60;1.58;;;;;;;22.38;40.74;101220.75;4991785;28;20231;-84
2022/06/03 09:31:45;;;;;;;2.15;1.70;;;;;;;22.40;40.12;101221.41;4992091;28;20215;-84
2022/06/03 09:34:13;;;;;;;2.40;2.00;;;;;;;22.43;39.96;101219.25;4991895;28;20575;-83
2022/06/03 09:36:40;;;;;;;2.67;2.00;;;;;;;22.52;40.28;101217.44;4991309;28;20199;-84
2022/06/03 09:39:11;;;;;;;2.00;1.80;;;;;;;22.61;39.96;101221.03;4991653;28;20207;-84
2022/06/03 09:41:42;;;;;;;2.20;2.00;;;;;;;22.66;40.08;101218.69;4991735;28;20646;-85
2022/06/03 09:44:13;;;;;;;1.95;1.85;;;;;;;22.73;39.22;101217.06;4993920;28;20238;-84
2022/06/03 09:46:41;;;;;;;3.53;1.90;;;;;;;22.78;39.19;101218.28;4993183;28;20195;-84
2022/06/03 09:49:09;;;;;;;1.95;1.73;;;;;;;22.82;38.92;101211.53;4992835;28;20239;-84
2022/06/03 09:52:00;;;;;;;2.05;1.83;;;;;;;22.89;38.76;101225.31;4992592;28;20207;-85
2022/06/03 09:54:32;;;;;;;4.10;2.13;;;;;;;22.94;38.27;101222.09;4992741;28;20234;-85
2022/06/03 09:57:06;;;;;;;2.72;1.95;;;;;;;23.00;38.37;101225.00;4993086;28;20207;-85
2022/06/03 09:59:35;;;;;;;2.55;1.70;;;;;;;23.02;38.30;101219.41;4991465;28;20198;-84
2022/06/03 10:02:01;;;;;;;2.85;1.70;;;;;;;23.08;38.21;101207.91;4992112;28;20272;-83
2022/06/03 10:04:28;;;;;;;3.45;1.88;;;;;;;23.13;37.71;101202.78;4991467;28;20289;-84
2022/06/03 10:06:59;;;;;;;2.17;1.98;;;;;;;23.17;37.96;101196.03;4992014;28;20621;-85
2022/06/03 10:17:55;;;;;;;3.40;2.30;;;;;;;23.39;38.09;101197.28;4992265;28;20210;-84
2022/06/03 10:20:22;;;;;;;2.25;2.05;;;;;;;23.45;38.59;101197.47;4992073;28;20208;-86
2022/06/03 10:22:49;;;;;;;3.58;2.10;;;;;;;23.51;38.09;101204.06;4987593;28;20215;-85
2022/06/03 10:25:16;;;;;;;2.88;2.50;;;;;;;23.56;37.80;101190.88;4991114;28;20250;-85
2022/06/03 10:27:45;;;;;;;3.40;2.33;;;;;;;23.61;37.92;101193.94;4992642;28;20230;-84
2022/06/03 10:30:14;;;;;;;2.53;2.17;;;;;;;23.65;37.78;101189.00;4993784;28;20262;-85
2022/06/03 10:32:41;;;;;;;4.38;2.30;;;;;;;23.69;38.08;101185.78;4994569;28;20277;-85
2022/06/03 10:35:13;;;;;;;3.45;2.22;;;;;;;23.71;37.60;101188.34;4993999;28;20231;-84
2022/06/03 10:37:47;;;;;;;2.70;2.40;;;;;;;23.72;37.84;101181.88;4994398;28;20199;-84
2022/06/03 10:40:14;;;;;;;4.68;2.22;;;;;;;23.78;38.11;101182.06;4994189;28;20203;-84
2022/06/03 10:42:45;;;;;;;2.05;1.90;;;;;;;23.80;37.45;101171.84;4994505;28;20304;-86
2022/06/03 10:45:13;;;;;;;4.07;1.90;;;;;;;23.84;37.50;101164.19;4994417;28;20230;-84
2022/06/03 10:47:43;;;;;;;2.83;1.88;;;;;;;23.90;38.24;101160.78;4994906;28;20204;-85
2022/06/03 10:50:14;;;;;;;3.50;2.17;;;;;;;24.00;38.13;101160.63;4995688;28;20644;-84
2022/06/03 11:01:13;;;;;;;2.92;2.08;;;;;;;23.90;37.50;101163.50;4994338;28;20697;-86
2022/06/03 11:03:42;;;;;;;1.85;1.75;;;;;;;23.93;36.92;101160.44;4994288;28;20212;-85
2022/06/03 11:06:15;;;;;;;2.80;1.63;;;;;;;23.99;37.13;101148.91;4993169;28;20667;-84
2022/06/03 11:08:54;;;;;;;2.13;1.80;;;;;;;24.06;36.68;101149.03;4988473;28;20216;-84
2022/06/03 11:11:39;;;;;;;2.63;1.60;;;;;;;24.15;37.12;101128.97;4992389;28;20208;-85
2022/06/03 11:14:41;;;;;;;2.00;1.80;;;;;;;24.27;36.91;101132.19;4993111;28;20223;-84
2022/06/03 11:17:16;;;;;;;2.28;1.70;;;;;;;24.33;36.84;101134.22;4993245;28;20203;-85
2022/06/03 11:19:45;;;;;;;1.80;1.70;;;;;;;24.36;36.50;101131.16;4993182;28;20210;-84
2022/06/03 11:22:24;;;;;;;2.97;1.80;;;;;;;24.34;36.70;101120.44;4992569;28;20670;-85
2022/06/03 11:24:55;;;;;;;2.40;2.13;;;;;;;24.33;36.33;101124.19;4992765;28;20235;-84
2022/06/03 11:27:28;;;;;;;3.70;1.77;;;;;;;24.34;36.18;101114.13;4993482;28;20203;-85
2022/06/03 11:29:58;;;;;;;3.45;1.80;;;;;;;24.37;36.53;101120.06;4993148;28;20208;-85
2022/06/03 11:32:29;;;;;;;2.15;1.80;;;;;;;24.39;35.94;101117.16;4993229;28;20211;-84
2022/06/03 11:35:01;;;;;;;2.80;1.70;;;;;;;24.45;36.23;101108.31;4992355;28;20219;-84
2022/06/03 11:37:31;;;;;;;3.10;1.73;;;;;;;24.50;36.79;101112.22;4991528;28;20200;-84
2022/06/03 11:40:03;;;;;;;2.65;1.80;;;;;;;24.54;36.64;101102.63;4992222;28;20269;-84
2022/06/03 11:42:37;;;;;;;1.80;1.70;;;;;;;24.60;36.76;101098.38;4992600;28;20207;-84
2022/06/03 11:45:11;;;;;;;2.67;1.50;;;;;;;24.66;36.94;101096.81;4992195;28;20225;-84
2022/06/03 11:47:49;;;;;;;2.47;2.05;;;;;;;24.65;36.22;101089.66;4992212;28;20195;-84
2022/06/03 11:50:18;;;;;;;2.35;1.70;;;;;;;24.66;36.03;101097.66;4990949;28;20235;-85
2022/06/03 11:52:45;;;;;;;2.35;1.55;;;;;;;24.67;36.19;101087.63;4987873;28;20211;-84
2022/06/03 11:55:13;;;;;;;3.22;1.98;;;;;;;24.72;36.07;101090.66;4992326;28;20251;-84
2022/06/03 11:57:53;;;;;;;2.17;1.80;;;;;;;24.76;35.61;101090.09;4992523;28;20605;-84
2022/06/03 12:00:22;;;;;;;1.67;1.50;;;;;;;24.79;35.40;101081.59;4989799;28;20693;-86
2022/06/03 12:03:02;;;;;;;3.45;1.90;;;;;;;24.78;35.45;101082.59;4983165;28;20538;-84
2022/06/03 12:05:34;;;;;;;2.00;1.80;;;;;;;24.76;35.50;101078.38;4989718;28;20879;-84
2022/06/03 12:08:07;;;;;;;1.85;1.67;;;;;;;24.75;35.70;101079.38;4984123;28;20204;-84
2022/06/03 12:10:45;;;;;;;2.05;1.50;;;;;;;24.78;36.20;101077.16;4986129;28;20211;-83
2022/06/03 12:13:17;;;;;;;2.03;1.55;;;;;;;24.79;36.46;101073.41;4982557;28;20211;-84
2022/06/03 12:16:00;;;;;;;1.55;1.38;;;;;;;24.87;36.81;101070.66;4982675;28;20231;-85
2022/06/03 12:18:58;;;;;;;1.63;1.48;;;;;;;25.00;36.94;101061.06;4991729;28;20199;-85
2022/06/03 12:22:14;;;;;;;1.98;1.60;;;;;;;25.05;36.84;101064.09;4984473;28;20199;-85
2022/06/03 12:24:48;;;;;;;2.50;2.00;;;;;;;25.01;36.33;101054.56;4962091;28;20228;-86
2022/06/03 12:27:23;;;;;;;1.90;1.65;;;;;;;24.98;36.24;101057.66;4984834;28;20205;-86
2022/06/03 12:30:02;;;;;;;2.03;1.60;;;;;;;24.95;36.46;101047.13;4982081;28;20680;-85
2022/06/03 12:32:32;;;;;;;2.08;1.75;;;;;;;24.90;36.13;101045.75;4982111;28;20212;-84
2022/06/03 12:35:32;;;;;;;1.95;1.50;;;;;;;24.91;36.77;101043.88;4985552;28;20268;-85
2022/06/03 12:38:34;;;;;;;2.15;1.63;;;;;;;24.93;37.01;101045.38;4966320;28;20206;-84
2022/06/03 12:41:04;;;;;;;2.58;1.63;;;;;;;25.02;36.58;101031.75;4952435;28;20207;-83
2022/06/03 12:43:32;;;;;;;1.55;1.45;;;;;;;25.15;37.21;101041.00;4988994;28;20210;-84
2022/06/03 12:46:01;;;;;;;2.22;1.60;;;;;;;25.19;35.89;101034.16;4983333;28;20709;-85
2022/06/03 12:48:37;;;;;;;2.10;1.48;;;;;;;25.16;35.83;101030.94;4985162;28;20238;-84
2022/06/03 12:51:19;;;;;;;4.55;1.88;;;;;;;25.18;36.31;101026.16;4978807;28;20210;-85
2022/06/03 12:53:48;;;;;;;2.35;1.50;;;;;;;25.25;36.30;101019.81;4982871;28;20282;-84
2022/06/03 12:56:37;;;;;;;1.50;1.40;;;;;;;25.36;36.50;101015.78;4982081;28;20222;-85
2022/06/03 12:59:16;;;;;;;2.17;1.70;;;;;;;25.41;36.17;101018.81;4989560;28;20215;-85
2022/06/03 13:02:00;;;;;;;1.88;1.60;;;;;;;25.46;35.77;101023.69;4991829;28;20218;-85
2022/06/03 13:05:01;;;;;;;1.63;1.50;;;;;;;25.48;35.50;101022.47;4984493;28;20227;-84
2022/06/03 13:07:37;;;;;;;1.40;1.30;;;;;;;25.44;35.03;101018.41;4969294;28;20199;-84
2022/06/03 13:10:24;;;;;;;1.73;1.30;;;;;;;25.42;34.51;101016.94;4990706;28;20214;-84
2022/06/03 13:12:52;;;;;;;2.90;1.42;;;;;;;25.44;34.55;101009.41;4985063;28;20210;-84